Time,TemperatureF,DewpointF,PressureIn,WindDirection,WindDirectionDegrees,WindSpeedMPH,WindSpeedGustMPH,Humidity,HourlyPrecipIn,Conditions,Clouds,dailyrainin,SoftwareType,DateUTC
2013-06-07 00:01:00,66.6,66.3,29.74,SE,144,0.0,0.0,99,0.25,,SKC,1.13,VWS V14.01,2013-06-07 04:01:00,
2013-06-07 00:06:00,66.6,66.3,29.74,SE,144,0.0,0.0,99,0.14,,SKC,0.00,VWS V14.01,2013-06-07 04:06:00,
2013-06-07 00:11:00,66.6,66.3,29.74,SE,144,0.0,0.0,99,0.09,,SKC,0.00,VWS V14.01,2013-06-07 04:11:00,
2013-06-07 00:16:00,66.6,66.3,29.74,SE,144,0.0,0.0,99,0.08,,SKC,0.00,VWS V14.01,2013-06-07 04:16:00,
2013-06-07 00:21:00,66.6,66.3,29.74,SE,144,0.0,0.0,99,0.08,,SKC,0.00,VWS V14.01,2013-06-07 04:21:00,
2013-06-07 00:26:00,66.4,66.1,29.74,SE,144,0.0,0.0,99,0.07,,SKC,0.00,VWS V14.01,2013-06-07 04:26:00,
2013-06-07 00:31:00,66.4,66.1,29.74,SE,144,0.0,0.0,99,0.05,,SKC,0.00,VWS V14.01,2013-06-07 04:31:00,
2013-06-07 00:36:00,66.4,66.1,29.74,SE,144,0.0,0.0,99,0.04,,SKC,0.00,VWS V14.01,2013-06-07 04:36:00,
2013-06-07 00:42:00,66.4,66.1,29.74,SE,144,0.0,0.0,99,0.02,,SKC,0.00,VWS V14.01,2013-06-07 04:42:00,
2013-06-07 00:47:00,66.4,66.1,29.73,SE,144,0.0,0.0,99,0.01,,SKC,0.00,VWS V14.01,2013-06-07 04:47:00,
2013-06-07 00:52:00,66.3,66.0,29.73,SE,144,0.0,0.0,99,0.01,,SKC,0.00,VWS V14.01,2013-06-07 04:52:00,
2013-06-07 00:57:00,66.3,66.0,29.73,SE,144,0.0,0.0,99,0.02,,SKC,0.01,VWS V14.01,2013-06-07 04:57:00,
2013-06-07 01:02:00,66.3,66.0,29.72,SE,144,0.0,0.0,99,0.01,,SKC,0.01,VWS V14.01,2013-06-07 05:02:00,
2013-06-07 01:07:00,66.1,65.8,29.72,SE,144,0.0,0.0,99,0.01,,SKC,0.01,VWS V14.01,2013-06-07 05:07:00,
2013-06-07 01:12:00,66.1,65.8,29.72,SE,144,0.0,0.0,99,0.01,,SKC,0.01,VWS V14.01,2013-06-07 05:12:00,
2013-06-07 01:17:00,66.1,66.1,29.72,SE,144,0.0,0.0,100,0.01,,SKC,0.01,VWS V14.01,2013-06-07 05:17:00,
2013-06-07 01:22:00,66.1,66.1,29.72,SE,144,0.0,0.0,100,0.02,,SKC,0.02,VWS V14.01,2013-06-07 05:22:00,
2013-06-07 01:27:00,66.1,66.1,29.72,SE,144,0.0,0.0,100,0.02,,SKC,0.02,VWS V14.01,2013-06-07 05:27:00,
2013-06-07 01:32:00,66.1,66.1,29.71,SE,144,0.0,0.0,100,0.02,,SKC,0.02,VWS V14.01,2013-06-07 05:32:00,
2013-06-07 01:37:00,66.0,66.0,29.71,SE,144,0.0,2.0,100,0.02,,SKC,0.02,VWS V14.01,2013-06-07 05:37:00,
2013-06-07 01:42:00,65.8,65.8,29.71,SE,144,0.0,0.0,100,0.02,,SKC,0.02,VWS V14.01,2013-06-07 05:42:00,
2013-06-07 01:47:00,65.6,65.6,29.70,SE,144,0.0,0.0,100,0.03,,SKC,0.03,VWS V14.01,2013-06-07 05:47:00,
2013-06-07 01:52:00,65.6,65.6,29.70,SE,144,0.0,0.0,100,0.04,,SKC,0.04,VWS V14.01,2013-06-07 05:52:00,
2013-06-07 01:57:00,65.5,65.5,29.70,SE,144,0.0,0.0,100,0.04,,SKC,0.05,VWS V14.01,2013-06-07 05:57:00,
2013-06-07 02:02:00,65.5,65.5,29.70,SE,144,0.0,0.0,100,0.05,,SKC,0.06,VWS V14.01,2013-06-07 06:02:00,
2013-06-07 02:07:00,65.5,65.5,29.70,SE,144,0.0,0.0,100,0.05,,SKC,0.06,VWS V14.01,2013-06-07 06:07:00,
2013-06-07 02:12:00,65.5,65.5,29.70,SE,144,0.0,0.0,100,0.05,,SKC,0.06,VWS V14.01,2013-06-07 06:12:00,
2013-06-07 02:17:00,65.5,65.5,29.70,SE,144,0.0,0.0,100,0.06,,SKC,0.07,VWS V14.01,2013-06-07 06:17:00,
2013-06-07 02:22:00,65.3,65.3,29.70,SE,144,0.0,0.0,100,0.05,,SKC,0.07,VWS V14.01,2013-06-07 06:22:00,
2013-06-07 02:27:00,65.3,65.3,29.70,SE,144,0.0,0.0,100,0.05,,SKC,0.07,VWS V14.01,2013-06-07 06:27:00,
2013-06-07 02:32:00,65.3,65.3,29.69,SE,144,0.0,0.0,100,0.06,,SKC,0.08,VWS V14.01,2013-06-07 06:32:00,
2013-06-07 02:37:00,65.3,65.3,29.69,SE,144,0.0,0.0,100,0.06,,SKC,0.08,VWS V14.01,2013-06-07 06:37:00,
2013-06-07 02:42:00,65.3,65.3,29.69,SE,144,0.0,0.0,100,0.07,,SKC,0.09,VWS V14.01,2013-06-07 06:42:00,
2013-06-07 02:47:00,65.3,65.3,29.68,SE,144,0.0,0.0,100,0.07,,SKC,0.10,VWS V14.01,2013-06-07 06:47:00,
2013-06-07 02:52:00,65.3,65.3,29.68,SE,144,0.0,0.0,100,0.06,,SKC,0.10,VWS V14.01,2013-06-07 06:52:00,
2013-06-07 02:57:00,65.3,65.3,29.68,SE,144,0.0,0.0,100,0.05,,SKC,0.10,VWS V14.01,2013-06-07 06:57:00,
2013-06-07 03:02:00,65.3,65.3,29.68,SE,144,0.0,0.0,100,0.06,,SKC,0.11,VWS V14.01,2013-06-07 07:02:00,
2013-06-07 03:07:00,65.2,65.2,29.68,SE,144,0.0,0.0,100,0.05,,SKC,0.11,VWS V14.01,2013-06-07 07:07:00,
2013-06-07 03:12:00,65.2,65.2,29.68,SE,144,0.0,0.0,100,0.05,,SKC,0.11,VWS V14.01,2013-06-07 07:12:00,
2013-06-07 03:17:00,65.2,65.2,29.67,SE,144,0.0,0.0,100,0.05,,SKC,0.12,VWS V14.01,2013-06-07 07:17:00,
2013-06-07 03:22:00,65.2,65.2,29.67,SE,144,0.0,0.0,100,0.05,,SKC,0.12,VWS V14.01,2013-06-07 07:22:00,
2013-06-07 03:27:00,65.0,65.0,29.67,SE,144,0.0,0.0,100,0.05,,SKC,0.12,VWS V14.01,2013-06-07 07:27:00,
2013-06-07 03:32:00,65.0,65.0,29.66,SE,144,0.0,0.0,100,0.05,,SKC,0.13,VWS V14.01,2013-06-07 07:32:00,
2013-06-07 03:37:00,64.8,64.8,29.66,SE,144,0.0,0.0,100,0.05,,SKC,0.13,VWS V14.01,2013-06-07 07:37:00,
2013-06-07 03:42:00,64.8,64.8,29.66,SE,144,0.0,0.0,100,0.04,,SKC,0.13,VWS V14.01,2013-06-07 07:42:00,
2013-06-07 03:47:00,64.8,64.8,29.66,SE,144,0.0,0.0,100,0.03,,SKC,0.13,VWS V14.01,2013-06-07 07:47:00,
2013-06-07 03:52:00,64.8,64.8,29.66,SE,144,0.0,0.0,100,0.03,,SKC,0.13,VWS V14.01,2013-06-07 07:52:00,
2013-06-07 03:57:00,64.8,64.8,29.66,SE,144,0.0,0.0,100,0.04,,SKC,0.14,VWS V14.01,2013-06-07 07:57:00,
2013-06-07 04:02:00,64.8,64.8,29.65,SE,144,0.0,0.0,100,0.03,,SKC,0.14,VWS V14.01,2013-06-07 08:02:00,
2013-06-07 04:07:00,64.8,64.8,29.65,SE,144,0.0,0.0,100,0.03,,SKC,0.14,VWS V14.01,2013-06-07 08:07:00,
2013-06-07 04:12:00,64.8,64.8,29.65,SE,144,0.0,0.0,100,0.03,,SKC,0.14,VWS V14.01,2013-06-07 08:12:00,
2013-06-07 04:17:00,64.8,64.8,29.65,SE,144,0.0,0.0,100,0.02,,SKC,0.14,VWS V14.01,2013-06-07 08:17:00,
2013-06-07 04:22:00,64.8,64.8,29.65,SE,144,0.0,0.0,100,0.02,,SKC,0.14,VWS V14.01,2013-06-07 08:22:00,
2013-06-07 04:27:00,64.8,64.8,29.65,SE,144,0.0,0.0,100,0.02,,SKC,0.14,VWS V14.01,2013-06-07 08:27:00,
2013-06-07 04:32:00,64.8,64.8,29.64,SE,144,0.0,0.0,100,0.02,,SKC,0.15,VWS V14.01,2013-06-07 08:32:00,
2013-06-07 04:37:00,64.8,64.8,29.64,SE,144,0.0,0.0,100,0.02,,SKC,0.15,VWS V14.01,2013-06-07 08:37:00,
2013-06-07 04:42:00,64.8,64.8,29.64,SE,144,0.0,0.0,100,0.02,,SKC,0.15,VWS V14.01,2013-06-07 08:42:00,
2013-06-07 04:47:00,64.8,64.8,29.64,SE,144,0.0,0.0,100,0.03,,SKC,0.16,VWS V14.01,2013-06-07 08:47:00,
2013-06-07 04:52:00,64.8,64.8,29.64,SE,144,0.0,0.0,100,0.03,,SKC,0.16,VWS V14.01,2013-06-07 08:52:00,
2013-06-07 04:57:00,64.8,64.8,29.64,SE,144,0.0,0.0,100,0.02,,SKC,0.16,VWS V14.01,2013-06-07 08:57:00,
2013-06-07 05:02:00,64.8,64.8,29.63,SE,144,0.0,0.0,100,0.02,,SKC,0.16,VWS V14.01,2013-06-07 09:02:00,
2013-06-07 05:07:00,64.7,64.7,29.63,SE,144,0.0,0.0,100,0.02,,SKC,0.16,VWS V14.01,2013-06-07 09:07:00,
2013-06-07 05:12:00,64.7,64.7,29.63,SE,144,0.0,0.0,100,0.02,,SKC,0.16,VWS V14.01,2013-06-07 09:12:00,
2013-06-07 05:17:00,64.7,64.7,29.63,SE,144,0.0,0.0,100,0.03,,SKC,0.17,VWS V14.01,2013-06-07 09:17:00,
2013-06-07 05:22:00,64.7,64.7,29.63,SE,144,0.0,0.0,100,0.03,,SKC,0.17,VWS V14.01,2013-06-07 09:22:00,
2013-06-07 05:27:00,64.5,64.5,29.63,SE,144,0.0,0.0,100,0.03,,SKC,0.17,VWS V14.01,2013-06-07 09:27:00,
2013-06-07 05:32:00,64.5,64.5,29.63,SE,144,0.0,0.0,100,0.02,,SKC,0.17,VWS V14.01,2013-06-07 09:32:00,
2013-06-07 05:37:00,64.5,64.5,29.63,SE,144,0.0,0.0,100,0.02,,SKC,0.17,VWS V14.01,2013-06-07 09:37:00,
2013-06-07 05:42:00,64.5,64.5,29.63,SE,144,0.0,0.0,100,0.02,,SKC,0.17,VWS V14.01,2013-06-07 09:42:00,
2013-06-07 05:47:00,64.5,64.5,29.62,SE,144,0.0,0.0,100,0.01,,SKC,0.17,VWS V14.01,2013-06-07 09:47:00,
2013-06-07 05:52:00,64.3,64.3,29.62,SE,144,0.0,0.0,100,0.01,,SKC,0.17,VWS V14.01,2013-06-07 09:52:00,
2013-06-07 05:57:00,64.3,64.3,29.62,SE,144,0.0,0.0,100,0.01,,SKC,0.17,VWS V14.01,2013-06-07 09:57:00,
2013-06-07 06:02:00,64.3,64.3,29.62,SE,144,0.0,0.0,100,0.01,,SKC,0.17,VWS V14.01,2013-06-07 10:02:00,
2013-06-07 06:07:00,64.3,64.3,29.62,SE,144,0.0,0.0,100,0.01,,SKC,0.17,VWS V14.01,2013-06-07 10:07:00,
2013-06-07 06:12:00,64.3,64.3,29.62,SE,144,0.0,0.0,100,0.01,,SKC,0.17,VWS V14.01,2013-06-07 10:12:00,
2013-06-07 06:17:00,64.3,64.3,29.63,SE,144,0.0,0.0,100,0.00,,SKC,0.17,VWS V14.01,2013-06-07 10:17:00,
2013-06-07 06:22:00,64.2,64.2,29.63,SE,144,0.0,0.0,100,0.00,,SKC,0.17,VWS V14.01,2013-06-07 10:22:00,
2013-06-07 06:27:00,64.3,64.3,29.63,SE,144,0.0,0.0,100,0.00,,SKC,0.17,VWS V14.01,2013-06-07 10:27:00,
2013-06-07 06:32:00,64.3,64.3,29.63,SE,144,0.0,0.0,100,0.00,,SKC,0.17,VWS V14.01,2013-06-07 10:32:00,
2013-06-07 06:37:00,64.3,64.3,29.63,SE,144,0.0,0.0,100,0.00,,SKC,0.17,VWS V14.01,2013-06-07 10:37:00,
2013-06-07 06:42:00,64.5,64.5,29.63,South,169,0.0,0.0,100,0.00,,SKC,0.17,VWS V14.01,2013-06-07 10:42:00,
2013-06-07 06:47:00,64.5,64.5,29.62,South,169,0.0,0.0,100,0.00,,SKC,0.17,VWS V14.01,2013-06-07 10:47:00,
2013-06-07 06:52:00,64.5,64.5,29.62,South,169,0.0,0.0,100,0.01,,SKC,0.18,VWS V14.01,2013-06-07 10:52:00,
2013-06-07 06:57:00,64.3,64.3,29.62,South,169,0.0,0.0,100,0.01,,SKC,0.18,VWS V14.01,2013-06-07 10:57:00,
2013-06-07 07:02:00,64.3,64.3,29.63,South,169,0.0,0.0,100,0.01,,SKC,0.18,VWS V14.01,2013-06-07 11:02:00,
2013-06-07 07:07:00,64.2,64.2,29.63,South,169,0.0,0.0,100,0.01,,SKC,0.18,VWS V14.01,2013-06-07 11:07:00,
2013-06-07 07:12:00,64.2,64.2,29.63,South,169,0.0,0.0,100,0.02,,SKC,0.19,VWS V14.01,2013-06-07 11:12:00,
2013-06-07 07:17:00,64.2,64.2,29.63,South,169,0.0,0.0,100,0.02,,SKC,0.19,VWS V14.01,2013-06-07 11:17:00,
2013-06-07 07:22:00,64.3,64.3,29.63,South,169,0.0,0.0,100,0.03,,SKC,0.20,VWS V14.01,2013-06-07 11:22:00,
2013-06-07 07:27:00,64.3,64.3,29.63,South,169,0.0,0.0,100,0.03,,SKC,0.20,VWS V14.01,2013-06-07 11:27:00,
2013-06-07 07:32:00,64.3,64.3,29.63,South,169,0.0,0.0,100,0.03,,SKC,0.20,VWS V14.01,2013-06-07 11:32:00,
2013-06-07 07:37:00,64.5,64.5,29.63,South,169,0.0,0.0,100,0.03,,SKC,0.20,VWS V14.01,2013-06-07 11:37:00,
2013-06-07 07:42:00,64.5,64.5,29.63,South,170,0.0,2.0,100,0.03,,SKC,0.20,VWS V14.01,2013-06-07 11:42:00,
2013-06-07 07:47:00,64.5,64.5,29.61,South,170,0.0,0.0,100,0.03,,SKC,0.20,VWS V14.01,2013-06-07 11:47:00,
2013-06-07 07:52:00,64.7,64.7,29.61,South,170,0.0,0.0,100,0.02,,SKC,0.20,VWS V14.01,2013-06-07 11:52:00,
2013-06-07 07:57:00,65.0,65.0,29.61,South,170,0.0,0.0,100,0.02,,SKC,0.20,VWS V14.01,2013-06-07 11:57:00,
2013-06-07 08:02:00,65.2,65.2,29.61,South,170,0.0,0.0,100,0.02,,SKC,0.20,VWS V14.01,2013-06-07 12:02:00,
2013-06-07 08:07:00,65.2,65.2,29.61,South,170,0.0,0.0,100,0.02,,SKC,0.20,VWS V14.01,2013-06-07 12:07:00,
2013-06-07 08:12:00,65.3,65.3,29.61,South,170,0.0,0.0,100,0.01,,SKC,0.20,VWS V14.01,2013-06-07 12:12:00,
2013-06-07 08:17:00,65.5,65.5,29.61,South,170,0.0,0.0,100,0.01,,SKC,0.20,VWS V14.01,2013-06-07 12:17:00,
2013-06-07 08:22:00,65.8,65.8,29.61,South,170,0.0,0.0,100,0.01,,SKC,0.20,VWS V14.01,2013-06-07 12:22:00,
2013-06-07 08:27:00,66.0,66.0,29.61,South,170,0.0,0.0,100,0.00,,SKC,0.20,VWS V14.01,2013-06-07 12:27:00,
2013-06-07 08:32:00,66.1,66.1,29.61,South,170,0.0,0.0,100,0.00,,SKC,0.20,VWS V14.01,2013-06-07 12:32:00,
2013-06-07 08:37:00,66.3,66.3,29.61,South,170,0.0,0.0,100,0.00,,SKC,0.20,VWS V14.01,2013-06-07 12:37:00,
2013-06-07 08:42:00,66.8,66.8,29.61,South,170,0.0,0.0,100,0.00,,SKC,0.20,VWS V14.01,2013-06-07 12:42:00,
2013-06-07 08:47:00,66.8,66.8,29.61,South,169,0.0,0.0,100,0.00,,SKC,0.20,VWS V14.01,2013-06-07 12:47:00,
2013-06-07 08:52:00,67.1,67.1,29.61,South,169,0.0,0.0,100,0.00,,SKC,0.20,VWS V14.01,2013-06-07 12:52:00,
2013-06-07 08:57:00,67.4,67.4,29.61,South,169,0.0,0.0,100,0.00,,SKC,0.20,VWS V14.01,2013-06-07 12:57:00,
2013-06-07 09:02:00,67.1,67.1,29.61,South,169,0.0,0.0,100,0.00,,SKC,0.20,VWS V14.01,2013-06-07 13:02:00,
2013-06-07 09:07:00,66.6,66.6,29.61,SSE,168,0.0,0.0,100,0.00,,SKC,0.20,VWS V14.01,2013-06-07 13:07:00,
2013-06-07 09:12:00,66.8,66.8,29.61,SSE,168,0.0,0.0,100,0.00,,SKC,0.20,VWS V14.01,2013-06-07 13:12:00,
2013-06-07 09:17:00,67.1,67.1,29.61,SSE,168,0.0,0.0,100,0.00,,SKC,0.20,VWS V14.01,2013-06-07 13:17:00,
2013-06-07 09:22:00,66.9,66.9,29.61,South,169,0.0,1.0,100,0.00,,SKC,0.20,VWS V14.01,2013-06-07 13:22:00,
2013-06-07 09:27:00,66.9,66.9,29.61,South,169,0.0,0.0,100,0.00,,SKC,0.20,VWS V14.01,2013-06-07 13:27:00,
2013-06-07 09:32:00,66.8,66.8,29.61,SSE,168,0.0,0.0,100,0.00,,SKC,0.20,VWS V14.01,2013-06-07 13:32:00,
2013-06-07 09:37:00,66.8,66.8,29.61,SSE,168,0.0,0.0,100,0.00,,SKC,0.20,VWS V14.01,2013-06-07 13:37:00,
2013-06-07 09:42:00,67.3,67.3,29.61,SSE,168,0.0,0.0,100,0.00,,SKC,0.20,VWS V14.01,2013-06-07 13:42:00,
2013-06-07 09:47:00,66.9,66.9,29.61,SSE,168,0.0,1.0,100,0.00,,SKC,0.20,VWS V14.01,2013-06-07 13:47:00,
2013-06-07 09:52:00,67.1,67.1,29.61,SSE,168,0.0,0.0,100,0.00,,SKC,0.20,VWS V14.01,2013-06-07 13:52:00,
2013-06-07 09:57:00,67.1,67.1,29.61,SSE,168,0.0,0.0,100,0.00,,SKC,0.20,VWS V14.01,2013-06-07 13:57:00,
2013-06-07 10:02:00,67.4,67.4,29.61,SSE,168,1.0,2.0,100,0.00,,SKC,0.20,VWS V14.01,2013-06-07 14:02:00,
2013-06-07 10:07:00,67.4,67.4,29.61,SSE,168,0.0,0.0,100,0.00,,SKC,0.20,VWS V14.01,2013-06-07 14:07:00,
2013-06-07 10:12:00,67.6,67.6,29.61,SSE,168,3.0,3.0,100,0.00,,SKC,0.20,VWS V14.01,2013-06-07 14:12:00,
2013-06-07 10:17:00,67.4,67.4,29.61,SSE,168,0.0,0.0,100,0.00,,SKC,0.20,VWS V14.01,2013-06-07 14:17:00,
2013-06-07 10:22:00,67.6,67.6,29.61,SSE,168,0.0,0.0,100,0.00,,SKC,0.20,VWS V14.01,2013-06-07 14:22:00,
2013-06-07 10:27:00,67.6,67.6,29.61,SSE,168,0.0,0.0,100,0.00,,SKC,0.20,VWS V14.01,2013-06-07 14:27:00,
2013-06-07 10:32:00,67.8,67.8,29.60,SSE,168,0.0,0.0,100,0.00,,SKC,0.20,VWS V14.01,2013-06-07 14:32:00,
2013-06-07 10:37:00,67.8,67.8,29.60,SSE,168,0.0,0.0,100,0.00,,SKC,0.20,VWS V14.01,2013-06-07 14:37:00,
2013-06-07 10:42:00,67.8,67.8,29.60,SSE,168,0.0,0.0,100,0.01,,SKC,0.21,VWS V14.01,2013-06-07 14:42:00,
2013-06-07 10:47:00,67.9,67.9,29.61,SSE,168,0.0,0.0,100,0.01,,SKC,0.21,VWS V14.01,2013-06-07 14:47:00,
2013-06-07 10:52:00,67.8,67.8,29.61,SSE,168,0.0,0.0,100,0.01,,SKC,0.21,VWS V14.01,2013-06-07 14:52:00,
2013-06-07 10:57:00,67.9,67.6,29.61,SSE,168,0.0,0.0,99,0.01,,SKC,0.21,VWS V14.01,2013-06-07 14:57:00,
2013-06-07 11:02:00,68.1,67.8,29.61,SSE,168,0.0,0.0,99,0.01,,SKC,0.21,VWS V14.01,2013-06-07 15:02:00,
2013-06-07 11:07:00,68.3,67.4,29.61,SSE,168,0.0,0.0,97,0.01,,SKC,0.21,VWS V14.01,2013-06-07 15:07:00,
2013-06-07 11:12:00,68.4,67.5,29.61,SSE,168,0.0,0.0,97,0.01,,SKC,0.21,VWS V14.01,2013-06-07 15:12:00,
2013-06-07 11:17:00,68.9,68.0,29.60,SSE,168,0.0,0.0,97,0.01,,SKC,0.21,VWS V14.01,2013-06-07 15:17:00,
2013-06-07 11:22:00,69.3,68.1,29.60,SSE,168,0.0,0.0,96,0.01,,SKC,0.21,VWS V14.01,2013-06-07 15:22:00,
2013-06-07 11:27:00,69.6,68.4,29.60,SSE,168,0.0,0.0,96,0.01,,SKC,0.21,VWS V14.01,2013-06-07 15:27:00,
2013-06-07 11:32:00,69.1,67.6,29.60,SSE,168,0.0,0.0,95,0.01,,SKC,0.21,VWS V14.01,2013-06-07 15:32:00,
2013-06-07 11:37:00,69.9,68.7,29.60,SSE,168,0.0,0.0,96,0.01,,SKC,0.21,VWS V14.01,2013-06-07 15:37:00,
2013-06-07 11:42:00,70.1,68.6,29.60,SSE,168,0.0,0.0,95,0.00,,SKC,0.21,VWS V14.01,2013-06-07 15:42:00,
2013-06-07 11:47:00,70.1,68.3,29.60,SSE,168,0.0,1.0,94,0.00,,SKC,0.21,VWS V14.01,2013-06-07 15:47:00,
2013-06-07 11:52:00,69.9,67.8,29.60,SSE,168,0.0,1.0,93,0.00,,SKC,0.21,VWS V14.01,2013-06-07 15:52:00,
2013-06-07 11:57:00,70.4,68.6,29.60,SSE,168,3.0,3.0,94,0.00,,SKC,0.21,VWS V14.01,2013-06-07 15:57:00,
2013-06-07 12:02:00,70.6,68.8,29.60,SSE,168,0.0,0.0,94,0.00,,SKC,0.21,VWS V14.01,2013-06-07 16:02:00,
2013-06-07 12:07:00,70.9,69.1,29.60,SSE,168,0.0,0.0,94,0.00,,SKC,0.21,VWS V14.01,2013-06-07 16:07:00,
2013-06-07 12:12:00,70.9,69.1,29.60,SSE,168,0.0,0.0,94,0.00,,SKC,0.21,VWS V14.01,2013-06-07 16:12:00,
2013-06-07 12:17:00,71.3,69.5,29.60,SSE,168,0.0,0.0,94,0.00,,SKC,0.21,VWS V14.01,2013-06-07 16:17:00,
2013-06-07 12:22:00,71.3,69.2,29.60,SSE,168,0.0,0.0,93,0.00,,SKC,0.21,VWS V14.01,2013-06-07 16:22:00,
2013-06-07 12:27:00,71.5,69.1,29.60,SSE,168,0.0,0.0,92,0.00,,SKC,0.21,VWS V14.01,2013-06-07 16:27:00,
2013-06-07 12:32:00,71.5,68.7,29.60,SSE,168,0.0,0.0,91,0.00,,SKC,0.21,VWS V14.01,2013-06-07 16:32:00,
2013-06-07 12:37:00,71.6,69.2,29.60,SSE,168,0.0,0.0,92,0.00,,SKC,0.21,VWS V14.01,2013-06-07 16:37:00,
2013-06-07 12:42:00,71.6,68.8,29.60,SSE,168,0.0,0.0,91,0.00,,SKC,0.21,VWS V14.01,2013-06-07 16:42:00,
2013-06-07 12:47:00,72.0,68.9,29.59,SSE,168,0.0,0.0,90,0.00,,SKC,0.21,VWS V14.01,2013-06-07 16:47:00,
2013-06-07 12:52:00,72.3,69.5,29.59,SSE,168,0.0,0.0,91,0.00,,SKC,0.21,VWS V14.01,2013-06-07 16:52:00,
2013-06-07 12:57:00,72.7,69.6,29.59,SSE,168,0.0,0.0,90,0.00,,SKC,0.21,VWS V14.01,2013-06-07 16:57:00,
2013-06-07 13:02:00,73.0,69.6,29.59,SSE,168,0.0,1.0,89,0.00,,SKC,0.21,VWS V14.01,2013-06-07 17:02:00,
2013-06-07 13:07:00,73.3,69.5,29.59,SSE,168,0.0,0.0,88,0.00,,SKC,0.21,VWS V14.01,2013-06-07 17:07:00,
2013-06-07 13:12:00,73.9,69.8,29.59,SSE,168,0.0,1.0,87,0.00,,SKC,0.21,VWS V14.01,2013-06-07 17:12:00,
2013-06-07 13:17:00,73.9,68.8,29.58,SSE,168,0.0,0.0,84,0.00,,SKC,0.21,VWS V14.01,2013-06-07 17:17:00,
2013-06-07 13:22:00,74.0,69.2,29.58,SSE,168,0.0,0.0,85,0.00,,SKC,0.21,VWS V14.01,2013-06-07 17:22:00,
2013-06-07 13:27:00,74.4,69.9,29.58,SSE,168,0.0,0.0,86,0.00,,SKC,0.21,VWS V14.01,2013-06-07 17:27:00,
2013-06-07 13:32:00,74.9,69.7,29.58,SSE,168,0.0,0.0,84,0.00,,SKC,0.21,VWS V14.01,2013-06-07 17:32:00,
2013-06-07 13:37:00,74.9,65.3,29.58,NNW,332,0.0,4.0,72,0.00,,SKC,0.21,VWS V14.01,2013-06-07 17:37:00,
2013-06-07 13:42:00,75.1,65.9,29.58,WNW,288,1.0,10.0,73,0.00,,SKC,0.21,VWS V14.01,2013-06-07 17:42:00,
2013-06-07 13:47:00,75.3,63.6,29.59,NNW,336,0.0,2.0,67,0.00,,SKC,0.21,VWS V14.01,2013-06-07 17:47:00,
2013-06-07 13:52:00,75.3,62.7,29.59,WNW,288,5.0,6.0,65,0.00,,SKC,0.21,VWS V14.01,2013-06-07 17:52:00,
2013-06-07 13:57:00,75.1,64.2,29.59,WNW,296,5.0,6.0,69,0.00,,SKC,0.21,VWS V14.01,2013-06-07 17:57:00,
2013-06-07 14:02:00,75.3,63.2,29.59,WNW,292,1.0,2.0,66,0.00,,SKC,0.21,VWS V14.01,2013-06-07 18:02:00,
2013-06-07 14:07:00,75.3,63.6,29.59,WNW,286,4.0,11.0,67,0.00,,SKC,0.21,VWS V14.01,2013-06-07 18:07:00,
2013-06-07 14:12:00,75.6,64.3,29.59,WNW,288,3.0,6.0,68,0.00,,SKC,0.21,VWS V14.01,2013-06-07 18:12:00,
2013-06-07 14:18:00,75.8,64.5,29.59,WNW,303,0.0,1.0,68,0.00,,SKC,0.21,VWS V14.01,2013-06-07 18:18:00,
2013-06-07 14:23:00,76.8,65.0,29.59,WNW,303,0.0,1.0,67,0.00,,SKC,0.21,VWS V14.01,2013-06-07 18:23:00,
2013-06-07 14:28:00,78.1,65.4,29.59,WSW,256,1.0,4.0,65,0.00,,SKC,0.21,VWS V14.01,2013-06-07 18:28:00,
2013-06-07 14:33:00,77.7,63.7,29.59,NW,305,4.0,5.0,62,0.00,,SKC,0.21,VWS V14.01,2013-06-07 18:33:00,
2013-06-07 14:38:00,77.0,63.9,29.59,WNW,286,5.0,7.0,64,0.00,,SKC,0.21,VWS V14.01,2013-06-07 18:38:00,
2013-06-07 14:43:00,75.8,64.1,29.59,West,277,6.0,11.0,67,0.00,,SKC,0.21,VWS V14.01,2013-06-07 18:43:00,
2013-06-07 14:48:00,75.1,63.8,29.60,WNW,290,6.0,13.0,68,0.00,,SKC,0.21,VWS V14.01,2013-06-07 18:48:00,
2013-06-07 14:53:00,74.9,62.8,29.60,NW,312,7.0,13.0,66,0.00,,SKC,0.21,VWS V14.01,2013-06-07 18:53:00,
2013-06-07 14:58:00,75.1,63.4,29.60,WNW,303,4.0,6.0,67,0.00,,SKC,0.21,VWS V14.01,2013-06-07 18:58:00,
2013-06-07 15:03:00,75.8,64.1,29.60,WNW,300,2.0,6.0,67,0.00,,SKC,0.21,VWS V14.01,2013-06-07 19:03:00,
2013-06-07 15:08:00,76.3,63.2,29.60,WNW,290,3.0,8.0,64,0.00,,SKC,0.21,VWS V14.01,2013-06-07 19:08:00,
2013-06-07 15:13:00,76.1,64.8,29.60,NW,315,10.0,14.0,68,0.00,,SKC,0.21,VWS V14.01,2013-06-07 19:13:00,
2013-06-07 15:18:00,75.8,62.8,29.60,North,354,3.0,11.0,64,0.00,,SKC,0.21,VWS V14.01,2013-06-07 19:18:00,
2013-06-07 15:23:00,76.3,63.2,29.60,WNW,298,4.0,7.0,64,0.00,,SKC,0.21,VWS V14.01,2013-06-07 19:23:00,
2013-06-07 15:28:00,76.8,63.3,29.60,WSW,255,7.0,11.0,63,0.00,,SKC,0.21,VWS V14.01,2013-06-07 19:28:00,
2013-06-07 15:33:00,77.4,63.8,29.59,WNW,295,0.0,6.0,63,0.00,,SKC,0.21,VWS V14.01,2013-06-07 19:33:00,
2013-06-07 15:38:00,77.7,63.2,29.59,West,264,7.0,13.0,61,0.00,,SKC,0.21,VWS V14.01,2013-06-07 19:38:00,
2013-06-07 15:44:00,77.4,63.4,29.59,North,1,0.0,11.0,62,0.00,,SKC,0.21,VWS V14.01,2013-06-07 19:44:00,
2013-06-07 15:49:00,76.8,62.8,29.60,West,274,4.0,7.0,62,0.00,,SKC,0.21,VWS V14.01,2013-06-07 19:49:00,
2013-06-07 15:54:00,76.5,62.5,29.60,WNW,282,5.0,11.0,62,0.00,,SKC,0.21,VWS V14.01,2013-06-07 19:54:00,
2013-06-07 15:59:00,76.0,63.4,29.60,West,277,2.0,10.0,65,0.00,,SKC,0.21,VWS V14.01,2013-06-07 19:59:00,
2013-06-07 16:04:00,75.8,64.5,29.60,West,280,0.0,0.0,68,0.00,,SKC,0.21,VWS V14.01,2013-06-07 20:04:00,
2013-06-07 16:09:00,75.6,63.0,29.60,West,280,0.0,4.0,65,0.00,,SKC,0.21,VWS V14.01,2013-06-07 20:09:00,
2013-06-07 16:14:00,75.4,63.7,29.60,West,279,5.0,7.0,67,0.00,,SKC,0.21,VWS V14.01,2013-06-07 20:14:00,
2013-06-07 16:19:00,75.1,63.0,29.60,NW,309,0.0,5.0,66,0.00,,SKC,0.21,VWS V14.01,2013-06-07 20:19:00,
2013-06-07 16:24:00,74.7,63.5,29.60,West,262,3.0,10.0,68,0.00,,SKC,0.21,VWS V14.01,2013-06-07 20:24:00,
2013-06-07 16:29:00,74.7,62.2,29.60,WNW,287,6.0,10.0,65,0.00,,SKC,0.21,VWS V14.01,2013-06-07 20:29:00,
2013-06-07 16:34:00,74.6,62.5,29.60,West,280,6.0,12.0,66,0.00,,SKC,0.21,VWS V14.01,2013-06-07 20:34:00,
2013-06-07 16:39:00,74.6,62.1,29.60,NW,311,3.0,14.0,65,0.00,,SKC,0.21,VWS V14.01,2013-06-07 20:39:00,
2013-06-07 16:44:00,74.7,62.2,29.60,North,359,7.0,8.0,65,0.00,,SKC,0.21,VWS V14.01,2013-06-07 20:44:00,
2013-06-07 16:50:00,74.7,63.0,29.61,NNW,343,5.0,5.0,67,0.00,,SKC,0.21,VWS V14.01,2013-06-07 20:50:00,
2013-06-07 16:55:00,75.1,64.2,29.61,NNW,330,0.0,5.0,69,0.00,,SKC,0.21,VWS V14.01,2013-06-07 20:55:00,
2013-06-07 17:00:00,75.6,62.1,29.61,NNW,333,0.0,5.0,63,0.00,,SKC,0.21,VWS V14.01,2013-06-07 21:00:00,
2013-06-07 17:05:00,76.1,62.6,29.61,NNW,346,0.0,5.0,63,0.00,,SKC,0.21,VWS V14.01,2013-06-07 21:05:00,
2013-06-07 17:10:00,76.5,63.4,29.61,NNW,340,0.0,5.0,64,0.00,,SKC,0.21,VWS V14.01,2013-06-07 21:10:00,
2013-06-07 17:15:00,77.4,65.2,29.60,NNW,340,0.0,4.0,66,0.00,,SKC,0.21,VWS V14.01,2013-06-07 21:15:00,
2013-06-07 17:20:00,78.1,62.6,29.60,NW,308,0.0,5.0,59,0.00,,SKC,0.21,VWS V14.01,2013-06-07 21:20:00,
2013-06-07 17:25:00,77.9,63.8,29.60,NW,308,0.0,1.0,62,0.00,,SKC,0.21,VWS V14.01,2013-06-07 21:25:00,
2013-06-07 17:30:00,77.9,62.4,29.61,NW,308,0.0,3.0,59,0.00,,SKC,0.21,VWS V14.01,2013-06-07 21:30:00,
2013-06-07 17:35:00,77.6,63.6,29.61,West,268,3.0,7.0,62,0.00,,SKC,0.21,VWS V14.01,2013-06-07 21:35:00,
2013-06-07 17:40:00,76.8,61.9,29.61,WNW,286,1.0,12.0,60,0.00,,SKC,0.21,VWS V14.01,2013-06-07 21:40:00,
2013-06-07 17:45:00,76.7,62.7,29.62,West,269,3.0,6.0,62,0.00,,SKC,0.21,VWS V14.01,2013-06-07 21:45:00,
2013-06-07 17:50:00,76.7,62.7,29.62,WNW,284,2.0,6.0,62,0.00,,SKC,0.21,VWS V14.01,2013-06-07 21:50:00,
2013-06-07 17:55:00,76.8,62.3,29.62,West,272,2.0,9.0,61,0.00,,SKC,0.21,VWS V14.01,2013-06-07 21:55:00,
2013-06-07 18:01:00,77.2,63.2,29.62,West,268,0.0,1.0,62,0.00,,SKC,0.21,VWS V14.01,2013-06-07 22:01:00,
2013-06-07 18:06:00,77.2,63.2,29.62,WNW,288,0.0,2.0,62,0.00,,SKC,0.21,VWS V14.01,2013-06-07 22:06:00,
2013-06-07 18:11:00,76.7,62.7,29.62,WNW,301,4.0,7.0,62,0.00,,SKC,0.21,VWS V14.01,2013-06-07 22:11:00,
2013-06-07 18:16:00,75.8,62.3,29.62,WNW,292,6.0,6.0,63,0.00,,SKC,0.21,VWS V14.01,2013-06-07 22:16:00,
2013-06-07 18:21:00,74.9,62.3,29.62,WNW,291,0.0,5.0,65,0.00,,SKC,0.21,VWS V14.01,2013-06-07 22:21:00,
2013-06-07 18:26:00,74.6,62.9,29.62,WNW,291,0.0,3.0,67,0.00,,SKC,0.21,VWS V14.01,2013-06-07 22:26:00,
2013-06-07 18:32:00,74.2,62.1,29.64,WNW,293,2.0,5.0,66,0.00,,SKC,0.21,VWS V14.01,2013-06-07 22:32:00,
2013-06-07 18:37:00,74.4,61.9,29.64,NW,307,9.0,9.0,65,0.00,,SKC,0.21,VWS V14.01,2013-06-07 22:37:00,
2013-06-07 18:42:00,74.6,62.1,29.64,WNW,293,4.0,13.0,65,0.00,,SKC,0.21,VWS V14.01,2013-06-07 22:42:00,
2013-06-07 18:47:00,74.9,61.9,29.64,NW,304,5.0,9.0,64,0.00,,SKC,0.21,VWS V14.01,2013-06-07 22:47:00,
2013-06-07 18:52:00,75.3,61.4,29.64,WNW,291,4.0,10.0,62,0.00,,SKC,0.21,VWS V14.01,2013-06-07 22:52:00,
2013-06-07 18:57:00,75.1,62.5,29.64,WNW,292,4.0,4.0,65,0.00,,SKC,0.21,VWS V14.01,2013-06-07 22:57:00,
2013-06-07 19:02:00,74.9,61.9,29.65,WNW,283,3.0,5.0,64,0.00,,SKC,0.21,VWS V14.01,2013-06-07 23:02:00,
2013-06-07 19:07:00,74.7,62.2,29.65,WNW,297,0.0,0.0,65,0.00,,SKC,0.21,VWS V14.01,2013-06-07 23:07:00,
2013-06-07 19:12:00,74.6,61.6,29.65,WNW,297,0.0,1.0,64,0.00,,SKC,0.21,VWS V14.01,2013-06-07 23:12:00,
2013-06-07 19:17:00,74.6,62.5,29.65,WNW,297,0.0,0.0,66,0.00,,SKC,0.21,VWS V14.01,2013-06-07 23:17:00,
2013-06-07 19:22:00,74.6,62.5,29.65,WNW,297,0.0,2.0,66,0.00,,SKC,0.21,VWS V14.01,2013-06-07 23:22:00,
2013-06-07 19:27:00,74.2,62.5,29.65,NW,305,0.0,4.0,67,0.00,,SKC,0.21,VWS V14.01,2013-06-07 23:27:00,
2013-06-07 19:32:00,73.9,63.1,29.66,NW,305,0.0,0.0,69,0.00,,SKC,0.21,VWS V14.01,2013-06-07 23:32:00,
2013-06-07 19:37:00,73.5,63.5,29.66,NW,305,0.0,0.0,71,0.00,,SKC,0.21,VWS V14.01,2013-06-07 23:37:00,
2013-06-07 19:42:00,73.0,63.0,29.66,NW,305,0.0,0.0,71,0.00,,SKC,0.21,VWS V14.01,2013-06-07 23:42:00,
2013-06-07 19:47:00,72.8,64.0,29.67,NW,305,0.0,0.0,74,0.00,,SKC,0.21,VWS V14.01,2013-06-07 23:47:00,
2013-06-07 19:52:00,72.7,62.0,29.67,NW,305,0.0,0.0,69,0.00,,SKC,0.21,VWS V14.01,2013-06-07 23:52:00,
2013-06-07 19:58:00,72.8,64.0,29.67,NW,305,0.0,0.0,74,0.00,,SKC,0.21,VWS V14.01,2013-06-07 23:58:00,
2013-06-07 20:03:00,72.7,64.3,29.67,NW,305,0.0,0.0,75,0.00,,SKC,0.21,VWS V14.01,2013-06-08 00:03:00,
2013-06-07 20:08:00,72.3,64.3,29.67,NW,305,0.0,0.0,76,0.00,,SKC,0.21,VWS V14.01,2013-06-08 00:08:00,
2013-06-07 20:13:00,72.0,64.0,29.67,NW,305,0.0,0.0,76,0.00,,SKC,0.21,VWS V14.01,2013-06-08 00:13:00,
2013-06-07 20:18:00,71.5,63.9,29.68,NW,305,0.0,0.0,77,0.00,,SKC,0.21,VWS V14.01,2013-06-08 00:18:00,
2013-06-07 20:23:00,71.1,64.3,29.68,NW,305,0.0,1.0,79,0.00,,SKC,0.21,VWS V14.01,2013-06-08 00:23:00,
2013-06-07 20:28:00,70.6,63.0,29.68,NW,305,0.0,1.0,77,0.00,,SKC,0.21,VWS V14.01,2013-06-08 00:28:00,
2013-06-07 20:33:00,70.4,62.5,29.70,NW,305,0.0,0.0,76,0.00,,SKC,0.21,VWS V14.01,2013-06-08 00:33:00,
2013-06-07 20:38:00,70.3,62.0,29.70,NW,305,0.0,0.0,75,0.00,,SKC,0.21,VWS V14.01,2013-06-08 00:38:00,
2013-06-07 20:43:00,70.3,62.4,29.70,NW,305,0.0,0.0,76,0.00,,SKC,0.21,VWS V14.01,2013-06-08 00:43:00,
2013-06-07 20:48:00,69.9,63.5,29.71,NW,305,0.0,4.0,80,0.00,,SKC,0.21,VWS V14.01,2013-06-08 00:48:00,
2013-06-07 20:54:00,69.3,63.9,29.71,NW,305,2.0,4.0,83,0.00,,SKC,0.21,VWS V14.01,2013-06-08 00:54:00,
2013-06-07 20:59:00,68.6,63.9,29.71,NW,305,2.0,5.0,85,0.00,,SKC,0.21,VWS V14.01,2013-06-08 00:59:00,
2013-06-07 21:04:00,68.1,63.8,29.71,NW,305,1.0,4.0,86,0.00,,SKC,0.21,VWS V14.01,2013-06-08 01:04:00,
2013-06-07 21:09:00,67.8,62.5,29.71,NW,305,2.0,3.0,83,0.00,,SKC,0.21,VWS V14.01,2013-06-08 01:09:00,
2013-06-07 21:14:00,67.8,62.8,29.71,NW,305,0.0,1.0,84,0.00,,SKC,0.21,VWS V14.01,2013-06-08 01:14:00,
2013-06-07 21:19:00,67.6,63.3,29.73,NW,305,0.0,0.0,86,0.00,,SKC,0.21,VWS V14.01,2013-06-08 01:19:00,
2013-06-07 21:24:00,67.1,62.8,29.73,NW,305,4.0,4.0,86,0.00,,SKC,0.21,VWS V14.01,2013-06-08 01:24:00,
2013-06-07 21:29:00,66.8,62.5,29.73,NW,305,0.0,0.0,86,0.00,,SKC,0.21,VWS V14.01,2013-06-08 01:29:00,
2013-06-07 21:34:00,66.6,62.3,29.73,NW,305,0.0,0.0,86,0.00,,SKC,0.21,VWS V14.01,2013-06-08 01:34:00,
2013-06-07 21:39:00,66.4,62.4,29.73,NW,305,0.0,0.0,87,0.00,,SKC,0.21,VWS V14.01,2013-06-08 01:39:00,
2013-06-07 21:44:00,66.3,62.0,29.73,NW,305,0.0,0.0,86,0.00,,SKC,0.21,VWS V14.01,2013-06-08 01:44:00,
2013-06-07 21:50:00,66.3,62.0,29.74,NW,305,0.0,0.0,86,0.00,,SKC,0.21,VWS V14.01,2013-06-08 01:50:00,
2013-06-07 21:55:00,66.6,61.3,29.74,NW,305,0.0,0.0,83,0.00,,SKC,0.21,VWS V14.01,2013-06-08 01:55:00,
2013-06-07 22:00:00,66.8,61.8,29.75,NW,305,0.0,0.0,84,0.00,,SKC,0.21,VWS V14.01,2013-06-08 02:00:00,
2013-06-07 22:05:00,66.9,61.6,29.75,NW,305,0.0,0.0,83,0.00,,SKC,0.21,VWS V14.01,2013-06-08 02:05:00,
2013-06-07 22:10:00,66.9,61.6,29.75,NW,305,0.0,0.0,83,0.00,,SKC,0.21,VWS V14.01,2013-06-08 02:10:00,
2013-06-07 22:15:00,66.8,61.5,29.76,NW,305,0.0,2.0,83,0.00,,SKC,0.21,VWS V14.01,2013-06-08 02:15:00,
2013-06-07 22:20:00,66.6,61.3,29.76,NW,305,2.0,3.0,83,0.00,,SKC,0.21,VWS V14.01,2013-06-08 02:20:00,
2013-06-07 22:25:00,66.4,61.1,29.76,NW,305,0.0,2.0,83,0.00,,SKC,0.21,VWS V14.01,2013-06-08 02:25:00,
2013-06-07 22:30:00,66.8,61.5,29.77,NW,305,0.0,0.0,83,0.00,,SKC,0.21,VWS V14.01,2013-06-08 02:30:00,
2013-06-07 22:35:00,66.8,62.5,29.77,NW,305,0.0,0.0,86,0.00,,SKC,0.21,VWS V14.01,2013-06-08 02:35:00,
2013-06-07 22:40:00,66.4,62.7,29.77,NW,305,0.0,1.0,88,0.01,,SKC,0.22,VWS V14.01,2013-06-08 02:40:00,
2013-06-07 22:45:00,65.8,62.5,29.78,NW,305,2.0,4.0,89,0.02,,SKC,0.23,VWS V14.01,2013-06-08 02:45:00,
2013-06-07 22:51:00,65.5,62.8,29.78,NW,305,0.0,2.0,91,0.04,,SKC,0.25,VWS V14.01,2013-06-08 02:51:00,
2013-06-07 22:56:00,65.0,62.6,29.78,NW,305,0.0,0.0,92,0.05,,SKC,0.26,VWS V14.01,2013-06-08 02:56:00,
2013-06-07 23:01:00,64.8,62.4,29.78,NW,305,0.0,0.0,92,0.07,,SKC,0.28,VWS V14.01,2013-06-08 03:01:00,
2013-06-07 23:06:00,64.7,62.6,29.78,NW,305,0.0,0.0,93,0.08,,SKC,0.29,VWS V14.01,2013-06-08 03:06:00,
2013-06-07 23:11:00,64.7,62.6,29.78,NW,305,0.0,0.0,93,0.08,,SKC,0.29,VWS V14.01,2013-06-08 03:11:00,
2013-06-07 23:16:00,64.5,62.7,29.77,NW,305,0.0,0.0,94,0.09,,SKC,0.30,VWS V14.01,2013-06-08 03:16:00,
2013-06-07 23:21:00,64.3,62.5,29.77,NW,305,0.0,0.0,94,0.09,,SKC,0.30,VWS V14.01,2013-06-08 03:21:00,
2013-06-07 23:26:00,64.3,62.8,29.77,NW,305,0.0,0.0,95,0.09,,SKC,0.30,VWS V14.01,2013-06-08 03:26:00,
2013-06-07 23:31:00,64.5,63.0,29.77,NW,305,0.0,0.0,95,0.09,,SKC,0.30,VWS V14.01,2013-06-08 03:31:00,
2013-06-07 23:36:00,64.5,63.0,29.77,NW,305,0.0,0.0,95,0.09,,SKC,0.30,VWS V14.01,2013-06-08 03:36:00,
2013-06-07 23:41:00,64.3,62.8,29.77,NW,305,0.0,0.0,95,0.08,,SKC,0.30,VWS V14.01,2013-06-08 03:41:00,
2013-06-07 23:46:00,64.2,63.0,29.76,NW,305,0.0,0.0,96,0.07,,SKC,0.30,VWS V14.01,2013-06-08 03:46:00,
2013-06-07 23:51:00,64.2,63.0,29.76,NW,305,0.0,0.0,96,0.05,,SKC,0.30,VWS V14.01,2013-06-08 03:51:00,
2013-06-07 23:56:00,64.0,62.8,29.76,NW,305,0.0,0.0,96,0.04,,SKC,0.30,VWS V14.01,2013-06-08 03:56:00,